createdAt,value
2023-01-27T00:01:15.755Z,15.82
2023-01-27T00:03:42.417Z,16.25
2023-01-27T00:06:09.020Z,16.10
2023-01-27T00:08:35.509Z,13.85
2023-01-27T00:11:02.231Z,13.25
2023-01-27T00:13:28.966Z,13.90
2023-01-27T00:15:55.938Z,16.10
2023-01-27T00:18:23.172Z,16.60
2023-01-27T00:20:49.816Z,17.63
2023-01-27T00:23:19.140Z,17.58
2023-01-27T00:25:45.778Z,16.92
2023-01-27T00:28:12.292Z,16.00
2023-01-27T00:30:38.836Z,12.93
2023-01-27T00:33:06.704Z,14.70
2023-01-27T00:35:35.520Z,18.63
2023-01-27T00:38:01.973Z,18.55
2023-01-27T00:40:28.464Z,18.17
2023-01-27T00:42:55.022Z,14.07
2023-01-27T00:45:22.110Z,17.03
2023-01-27T00:47:48.854Z,16.13
2023-01-27T00:50:16.007Z,15.57
2023-01-27T00:52:43.443Z,12.30
2023-01-27T00:55:10.415Z,21.52
2023-01-27T00:57:37.896Z,15.27
2023-01-27T01:00:06.298Z,21.67
2023-01-27T01:02:33.240Z,17.67
2023-01-27T01:05:01.132Z,21.80
2023-01-27T01:07:28.876Z,19.40
2023-01-27T01:09:55.514Z,19.27
2023-01-27T01:12:22.391Z,17.20
2023-01-27T01:14:50.473Z,15.70
2023-01-27T01:17:17.093Z,17.75
2023-01-27T01:19:43.585Z,16.67
2023-01-27T01:22:10.070Z,18.80
2023-01-27T01:24:36.656Z,22.13
2023-01-27T01:27:03.275Z,16.45
2023-01-27T01:29:30.799Z,19.30
2023-01-27T01:31:58.120Z,16.40
2023-01-27T01:34:24.619Z,18.05
2023-01-27T01:36:51.338Z,14.80
2023-01-27T01:39:18.573Z,16.35
2023-01-27T01:41:45.240Z,18.80
2023-01-27T01:44:22.704Z,18.17
2023-01-27T01:46:49.431Z,16.20
2023-01-27T01:49:18.691Z,17.30
2023-01-27T01:51:48.747Z,15.48
2023-01-27T01:54:20.293Z,19.50
2023-01-27T01:56:53.732Z,16.40
2023-01-27T01:59:46.723Z,17.77
2023-01-27T02:02:15.663Z,13.27
2023-01-27T02:04:51.038Z,12.73
2023-01-27T02:07:35.767Z,15.00
2023-01-27T02:10:02.855Z,17.60
2023-01-27T02:12:29.665Z,16.83
2023-01-27T02:14:56.335Z,18.50
2023-01-27T02:17:23.219Z,12.95
2023-01-27T02:20:05.277Z,16.65
2023-01-27T02:22:56.795Z,13.18
2023-01-27T02:25:35.545Z,17.33
2023-01-27T02:28:07.336Z,19.10
2023-01-27T02:30:34.374Z,13.35
2023-01-27T02:33:01.369Z,14.25
2023-01-27T02:35:38.871Z,14.77
2023-01-27T02:38:07.552Z,13.10
2023-01-27T02:40:36.552Z,13.18
2023-01-27T02:43:04.975Z,13.80
2023-01-27T02:45:31.740Z,11.55
2023-01-27T02:47:59.535Z,12.25
2023-01-27T02:50:26.265Z,13.00
2023-01-27T02:52:52.868Z,12.38
2023-01-27T02:55:19.399Z,14.52
2023-01-27T02:57:46.073Z,13.98
2023-01-27T03:00:26.496Z,14.68
2023-01-27T03:02:54.261Z,14.05
2023-01-27T03:05:20.774Z,16.67
2023-01-27T03:07:47.845Z,13.10
2023-01-27T03:10:14.603Z,17.38
2023-01-27T03:12:41.075Z,13.55
2023-01-27T03:15:08.433Z,13.40
2023-01-27T03:20:02.718Z,14.27
2023-01-27T03:22:29.739Z,16.98
2023-01-27T03:24:56.379Z,12.43
2023-01-27T03:27:23.724Z,12.20
2023-01-27T03:30:09.802Z,14.48
2023-01-27T03:32:37.218Z,14.77
2023-01-27T03:35:27.414Z,12.65
2023-01-27T03:37:56.399Z,15.80
2023-01-27T03:40:22.943Z,13.88
2023-01-27T03:42:53.223Z,16.03
2023-01-27T03:45:19.825Z,11.98
2023-01-27T03:47:46.412Z,16.98
2023-01-27T03:50:12.960Z,14.82
2023-01-27T03:52:40.062Z,14.65
2023-01-27T03:55:07.066Z,15.68
2023-01-27T03:57:33.688Z,13.97
2023-01-27T04:00:00.295Z,15.50
2023-01-27T04:02:26.884Z,12.05
2023-01-27T04:04:53.404Z,10.35
2023-01-27T04:07:19.985Z,9.35
2023-01-27T04:09:46.518Z,9.07
2023-01-27T04:12:13.200Z,8.35
2023-01-27T04:14:42.405Z,8.10
2023-01-27T04:17:17.119Z,12.40
2023-01-27T04:19:45.197Z,11.18
2023-01-27T04:22:12.894Z,9.77
2023-01-27T04:24:39.625Z,9.57
2023-01-27T04:27:09.946Z,9.60
2023-01-27T04:29:38.862Z,8.98
2023-01-27T04:32:06.143Z,11.82
2023-01-27T04:34:32.892Z,13.23
2023-01-27T04:36:59.939Z,14.45
2023-01-27T04:39:26.847Z,21.00
2023-01-27T04:41:53.409Z,13.10
2023-01-27T04:44:19.868Z,11.90
2023-01-27T04:46:47.218Z,11.65
2023-01-27T04:49:13.847Z,11.63
2023-01-27T04:51:40.580Z,12.82
2023-01-27T04:54:07.411Z,14.20
2023-01-27T04:56:36.658Z,9.88
2023-01-27T04:59:06.704Z,13.20
2023-01-27T05:01:33.811Z,13.60
2023-01-27T05:04:00.485Z,13.73
2023-01-27T05:06:28.011Z,25.75
2023-01-27T05:08:54.610Z,21.27
2023-01-27T05:11:21.517Z,21.77
2023-01-27T05:13:48.815Z,12.80
2023-01-27T05:16:21.415Z,15.20
2023-01-27T05:18:49.091Z,11.52
2023-01-27T05:21:18.699Z,12.25
2023-01-27T05:23:45.497Z,13.07
2023-01-27T05:26:21.189Z,13.63
2023-01-27T05:28:49.870Z,8.48
2023-01-27T05:31:17.667Z,13.05
2023-01-27T05:33:45.180Z,8.65
2023-01-27T05:36:14.008Z,10.65
2023-01-27T05:38:40.913Z,10.80
2023-01-27T05:41:08.945Z,12.13
2023-01-27T05:46:05.978Z,9.48
2023-01-27T05:48:34.171Z,7.85
2023-01-27T05:51:00.789Z,12.68
2023-01-27T05:53:27.417Z,10.63
2023-01-27T05:55:54.623Z,12.90
2023-01-27T05:58:22.164Z,12.75
2023-01-27T06:00:49.850Z,8.40
2023-01-27T06:03:16.906Z,11.48
2023-01-27T06:05:53.922Z,9.27
2023-01-27T06:08:21.102Z,14.63
2023-01-27T06:10:47.715Z,11.10
2023-01-27T06:13:14.387Z,11.27
2023-01-27T06:15:42.877Z,10.80
2023-01-27T06:18:09.827Z,11.23
2023-01-27T06:20:36.726Z,13.40
2023-01-27T06:23:03.554Z,8.73
2023-01-27T06:25:30.551Z,20.67
2023-01-27T06:27:57.966Z,124.22
2023-01-27T06:30:24.517Z,21.73
2023-01-27T06:32:51.017Z,13.27
2023-01-27T06:35:17.625Z,13.93
2023-01-27T06:37:44.358Z,15.32
2023-01-27T06:40:11.758Z,12.18
2023-01-27T06:42:41.531Z,18.38
2023-01-27T06:45:10.557Z,13.68
2023-01-27T06:47:38.689Z,14.15
2023-01-27T06:50:06.007Z,12.50
2023-01-27T06:52:32.605Z,12.00
2023-01-27T06:54:59.103Z,15.50
2023-01-27T06:57:25.928Z,17.85
2023-01-27T06:59:52.500Z,11.77
2023-01-27T07:02:19.130Z,10.52
2023-01-27T07:04:45.742Z,18.05
2023-01-27T07:07:12.425Z,16.05
2023-01-27T07:09:51.759Z,11.90
2023-01-27T07:12:19.167Z,18.52
2023-01-27T07:14:45.667Z,12.75
2023-01-27T07:17:12.181Z,13.32
2023-01-27T07:19:39.031Z,13.82
2023-01-27T07:22:05.625Z,10.65
2023-01-27T07:24:32.245Z,16.52
2023-01-27T07:26:58.887Z,17.90
2023-01-27T07:29:25.406Z,14.52
2023-01-27T07:31:52.075Z,14.68
2023-01-27T07:34:18.655Z,19.27
2023-01-27T07:36:45.228Z,15.88
2023-01-27T07:39:12.290Z,20.35
2023-01-27T07:41:38.903Z,16.50
2023-01-27T07:44:05.536Z,20.00
2023-01-27T07:49:00.043Z,21.52
2023-01-27T07:51:26.578Z,21.88
2023-01-27T07:53:53.230Z,14.82
2023-01-27T07:56:19.897Z,14.05
2023-01-27T07:58:46.631Z,15.68
2023-01-27T08:01:13.182Z,16.60
2023-01-27T08:03:39.917Z,22.77
2023-01-27T08:06:12.269Z,19.25
2023-01-27T08:08:39.190Z,18.48
2023-01-27T08:11:08.680Z,21.08
2023-01-27T08:13:36.372Z,19.98
2023-01-27T08:16:05.976Z,19.63
2023-01-27T08:18:33.170Z,16.40
2023-01-27T08:21:01.536Z,14.77
2023-01-27T08:23:28.170Z,16.33
2023-01-27T08:26:00.307Z,17.23
2023-01-27T08:28:28.927Z,16.67
2023-01-27T08:31:02.927Z,20.77
2023-01-27T08:33:29.488Z,16.05
2023-01-27T08:35:56.097Z,18.60
2023-01-27T08:38:22.628Z,21.95
2023-01-27T08:40:49.247Z,22.02
2023-01-27T08:43:16.261Z,19.85
2023-01-27T08:45:43.269Z,18.80
2023-01-27T08:48:12.290Z,22.05
2023-01-27T08:50:38.933Z,21.05
2023-01-27T08:53:05.489Z,28.38
2023-01-27T08:55:33.128Z,22.50
2023-01-27T08:57:59.703Z,22.70
2023-01-27T09:00:26.407Z,22.27
2023-01-27T09:02:53.149Z,27.10
2023-01-27T09:05:20.142Z,16.73
2023-01-27T09:07:46.985Z,16.83
2023-01-27T09:10:15.629Z,18.13
2023-01-27T09:12:44.009Z,16.90
2023-01-27T09:15:11.946Z,18.02
2023-01-27T09:17:38.498Z,18.23
2023-01-27T09:20:05.482Z,17.00
2023-01-27T09:22:32.009Z,20.77
2023-01-27T09:25:01.106Z,26.10
2023-01-27T09:27:38.865Z,26.63
2023-01-27T09:30:06.931Z,23.98
2023-01-27T09:32:33.670Z,20.33
2023-01-27T09:35:00.270Z,19.42
2023-01-27T09:37:27.974Z,15.45
2023-01-27T09:40:02.967Z,20.42
2023-01-27T09:42:38.488Z,21.75
2023-01-27T09:45:14.244Z,20.00
2023-01-27T09:48:06.082Z,21.48
2023-01-27T09:50:41.368Z,22.95
2023-01-27T09:53:26.632Z,20.10
2023-01-27T09:56:01.504Z,18.70
2023-01-27T09:58:53.099Z,19.58
2023-01-27T10:01:39.566Z,22.80
2023-01-27T10:04:28.321Z,17.98
2023-01-27T10:07:03.600Z,18.65
2023-01-27T10:09:46.771Z,16.95
2023-01-27T10:12:40.825Z,17.90
2023-01-27T10:15:42.461Z,21.00
2023-01-27T10:18:31.124Z,19.63
2023-01-27T10:21:18.870Z,23.77
2023-01-27T10:26:34.344Z,18.50
2023-01-27T10:29:09.154Z,22.05
2023-01-27T10:31:42.222Z,18.00
2023-01-27T10:34:28.903Z,21.00
2023-01-27T10:37:12.355Z,18.33
2023-01-27T10:40:12.271Z,27.52
2023-01-27T10:42:53.746Z,23.50
2023-01-27T10:45:37.282Z,19.10
2023-01-27T10:48:12.556Z,21.92
2023-01-27T10:50:51.485Z,25.58
2023-01-27T10:53:28.972Z,24.60
2023-01-27T10:56:04.986Z,21.90
2023-01-27T10:58:49.610Z,24.10
2023-01-27T11:01:23.015Z,25.55
2023-01-27T11:04:11.040Z,33.03
2023-01-27T11:06:40.503Z,29.83
2023-01-27T11:09:24.935Z,23.15
2023-01-27T11:11:53.276Z,27.80
2023-01-27T11:14:30.017Z,31.70
2023-01-27T11:17:15.751Z,33.42
2023-01-27T11:19:54.538Z,27.15
2023-01-27T11:22:24.146Z,27.25
2023-01-27T11:25:17.422Z,26.95
2023-01-27T11:28:02.765Z,28.42
2023-01-27T11:30:40.164Z,36.03
2023-01-27T11:33:31.361Z,23.45
2023-01-27T11:35:57.909Z,25.65
2023-01-27T11:42:11.817Z,24.60
2023-01-27T11:44:39.343Z,26.77
2023-01-27T11:47:08.519Z,33.63
2023-01-27T11:49:42.598Z,29.85
2023-01-27T11:52:15.068Z,26.25
2023-01-27T11:54:50.676Z,20.98
2023-01-27T11:57:23.094Z,28.02
2023-01-27T11:59:59.416Z,38.45
2023-01-27T12:02:36.276Z,39.47
2023-01-27T12:05:24.667Z,43.80
2023-01-27T12:07:58.857Z,46.80
2023-01-27T12:10:34.296Z,38.53
2023-01-27T12:13:23.226Z,31.33
2023-01-27T12:15:52.560Z,28.63
2023-01-27T12:18:19.392Z,28.88
2023-01-27T12:20:49.091Z,29.00
2023-01-27T12:23:29.913Z,36.13
2023-01-27T12:26:02.335Z,28.52
2023-01-27T12:28:32.776Z,21.88
2023-01-27T12:31:23.329Z,29.35
2023-01-27T12:34:27.998Z,52.17
2023-01-27T12:36:55.796Z,33.72
2023-01-27T12:39:41.766Z,29.42
2023-01-27T12:42:38.155Z,22.50
2023-01-27T12:45:23.811Z,27.17
2023-01-27T12:48:01.673Z,33.28
2023-01-27T12:50:31.920Z,32.55
2023-01-27T12:53:14.578Z,33.20
2023-01-27T12:55:59.448Z,33.78
2023-01-27T12:58:45.984Z,31.88
2023-01-27T13:01:26.124Z,32.35
2023-01-27T13:04:06.181Z,24.50
2023-01-27T13:06:50.561Z,30.35
2023-01-27T13:09:24.757Z,28.42
2023-01-27T13:11:52.274Z,35.42
2023-01-27T13:14:19.454Z,27.65
2023-01-27T13:16:56.950Z,28.70
2023-01-27T13:19:37.910Z,26.38
2023-01-27T13:22:06.017Z,24.30
2023-01-27T13:27:16.524Z,26.73
2023-01-27T13:29:54.948Z,23.90
2023-01-27T13:32:31.963Z,33.80
2023-01-27T13:35:10.706Z,25.05
2023-01-27T13:37:54.499Z,27.35
2023-01-27T13:40:30.712Z,30.65
2023-01-27T13:43:10.753Z,20.77
2023-01-27T13:45:44.235Z,26.45
2023-01-27T13:48:24.765Z,32.42
2023-01-27T13:51:14.976Z,18.13
2023-01-27T13:53:41.834Z,20.63
2023-01-27T13:56:22.420Z,21.70
2023-01-27T13:59:30.478Z,25.00
2023-01-27T14:02:31.601Z,20.83
2023-01-27T14:05:25.686Z,27.63
2023-01-27T14:08:07.720Z,24.02
2023-01-27T14:10:45.418Z,20.33
2023-01-27T14:13:33.393Z,24.38
2023-01-27T14:16:18.800Z,24.75
2023-01-27T14:18:52.385Z,23.05
2023-01-27T14:21:42.170Z,19.17
2023-01-27T14:24:30.909Z,28.67
2023-01-27T14:27:26.876Z,33.47
2023-01-27T14:30:31.349Z,30.50
2023-01-27T14:33:35.224Z,25.90
2023-01-27T14:36:10.735Z,24.58
2023-01-27T14:38:54.207Z,22.25
2023-01-27T14:41:44.923Z,24.23
2023-01-27T14:44:43.988Z,20.88
2023-01-27T14:47:54.463Z,19.75
2023-01-27T14:50:33.741Z,26.90
2023-01-27T14:53:34.247Z,25.63
2023-01-27T14:56:21.133Z,25.25
2023-01-27T14:59:13.184Z,26.40
2023-01-27T15:01:45.032Z,24.92
2023-01-27T15:04:26.298Z,24.88
2023-01-27T15:07:16.001Z,23.02
2023-01-27T15:09:48.522Z,26.70
2023-01-27T15:12:25.987Z,19.73
2023-01-27T15:15:30.060Z,21.77
2023-01-27T15:18:36.999Z,23.77
2023-01-27T15:21:33.862Z,25.98
2023-01-27T15:24:23.760Z,22.48
2023-01-27T15:26:50.645Z,22.77
2023-01-27T15:29:19.826Z,17.80
2023-01-27T15:32:15.540Z,18.77
2023-01-27T15:34:44.521Z,22.17
2023-01-27T15:37:26.167Z,18.08
2023-01-27T15:40:05.626Z,26.33
2023-01-27T15:43:02.901Z,23.40
2023-01-27T15:45:34.275Z,28.67
2023-01-27T15:48:31.323Z,27.23
2023-01-27T15:51:04.460Z,29.33
2023-01-27T15:53:39.797Z,28.52
2023-01-27T15:56:06.739Z,35.20
2023-01-27T15:58:55.036Z,31.95
2023-01-27T16:01:27.891Z,24.98
2023-01-27T16:04:05.706Z,21.75
2023-01-27T16:06:33.079Z,20.92
2023-01-27T16:09:05.286Z,27.63
2023-01-27T16:11:31.698Z,20.58
2023-01-27T16:14:24.387Z,26.20
2023-01-27T16:16:51.014Z,25.23
2023-01-27T16:19:21.314Z,28.90
2023-01-27T16:22:02.404Z,32.03
2023-01-27T16:24:36.051Z,25.35
2023-01-27T16:27:23.239Z,17.90
2023-01-27T16:29:58.567Z,21.30
2023-01-27T16:32:35.543Z,16.63
2023-01-27T16:35:05.557Z,20.37
2023-01-27T16:37:38.751Z,16.88
2023-01-27T16:40:15.543Z,22.30
2023-01-27T16:43:04.123Z,19.35
2023-01-27T16:45:42.312Z,16.55
2023-01-27T16:48:21.571Z,19.45
2023-01-27T16:50:48.658Z,18.13
2023-01-27T16:53:20.309Z,23.77
2023-01-27T16:56:02.265Z,19.77
2023-01-27T16:58:44.589Z,17.08
2023-01-27T17:01:27.019Z,15.02
2023-01-27T17:04:00.632Z,22.02
2023-01-27T17:06:31.001Z,18.10
2023-01-27T17:08:57.575Z,19.83
2023-01-27T17:11:30.065Z,22.25
2023-01-27T17:14:21.315Z,21.77
2023-01-27T17:16:58.323Z,22.80
2023-01-27T17:19:30.097Z,25.33
2023-01-27T17:22:02.209Z,20.45
2023-01-27T17:24:31.872Z,25.60
2023-01-27T17:27:09.241Z,21.38
2023-01-27T17:29:39.842Z,21.00
2023-01-27T17:32:28.863Z,21.88
2023-01-27T17:34:58.149Z,21.65
2023-01-27T17:37:25.245Z,23.05
2023-01-27T17:39:55.278Z,27.67
2023-01-27T17:42:25.343Z,32.35
2023-01-27T17:44:51.950Z,21.40
2023-01-27T17:47:20.893Z,20.90
2023-01-27T17:49:51.325Z,24.17
2023-01-27T17:52:21.602Z,26.55
2023-01-27T17:54:49.534Z,23.38
2023-01-27T17:57:21.503Z,21.75
2023-01-27T18:00:18.079Z,23.10
2023-01-27T18:02:57.735Z,18.58
2023-01-27T18:05:29.211Z,19.70
2023-01-27T18:07:55.744Z,22.00
2023-01-27T18:10:29.934Z,26.85
2023-01-27T18:12:57.673Z,30.15
2023-01-27T18:17:58.903Z,21.20
2023-01-27T18:20:34.328Z,52.22
2023-01-27T18:23:04.338Z,48.65
2023-01-27T18:25:30.950Z,31.40
2023-01-27T18:28:00.060Z,26.27
2023-01-27T18:30:26.664Z,26.05
2023-01-27T18:33:01.595Z,20.65
2023-01-27T18:35:33.684Z,26.08
2023-01-27T18:38:03.735Z,26.70
2023-01-27T18:40:33.112Z,27.88
2023-01-27T18:43:00.663Z,26.77
2023-01-27T18:45:27.625Z,28.35
2023-01-27T18:47:55.311Z,22.77
2023-01-27T18:50:26.447Z,26.75
2023-01-27T18:52:54.121Z,29.77
2023-01-27T18:55:39.110Z,24.33
2023-01-27T18:58:05.603Z,22.80
2023-01-27T19:00:55.313Z,19.25
2023-01-27T19:03:24.430Z,23.70
2023-01-27T19:05:51.378Z,30.70
2023-01-27T19:08:20.598Z,30.60
2023-01-27T19:10:48.498Z,30.75
2023-01-27T19:13:16.019Z,25.15
2023-01-27T19:15:47.259Z,32.78
2023-01-27T19:18:34.576Z,39.78
2023-01-27T19:21:02.033Z,36.60
2023-01-27T19:23:28.918Z,32.28
2023-01-27T19:25:58.265Z,34.80
2023-01-27T19:28:31.304Z,38.60
2023-01-27T19:30:57.880Z,30.80
2023-01-27T19:33:29.333Z,45.20
2023-01-27T19:36:10.700Z,42.38
2023-01-27T19:38:37.176Z,42.10
2023-01-27T19:41:03.676Z,35.38
2023-01-27T19:43:30.163Z,28.05
2023-01-27T19:45:56.873Z,34.65
2023-01-27T19:48:24.536Z,43.47
2023-01-27T19:50:52.248Z,36.42
2023-01-27T19:53:20.073Z,34.75
2023-01-27T19:55:47.035Z,27.80
2023-01-27T19:58:22.314Z,38.20
2023-01-27T20:00:49.148Z,46.97
2023-01-27T20:03:15.665Z,29.30
2023-01-27T20:05:42.182Z,39.33
2023-01-27T20:08:16.092Z,32.03
2023-01-27T20:10:43.183Z,27.75
2023-01-27T20:13:13.522Z,40.92
2023-01-27T20:15:40.457Z,34.17
2023-01-27T20:18:08.017Z,38.38
2023-01-27T20:20:34.488Z,31.33
2023-01-27T20:23:00.999Z,33.55
2023-01-27T20:25:28.729Z,36.15
2023-01-27T20:28:00.662Z,30.92
2023-01-27T20:30:30.423Z,37.20
2023-01-27T20:32:56.963Z,29.42
2023-01-27T20:35:23.648Z,31.35
2023-01-27T20:37:51.858Z,38.13
2023-01-27T20:40:24.695Z,35.50
2023-01-27T20:42:52.407Z,33.30
2023-01-27T20:45:19.518Z,32.90
2023-01-27T20:47:53.543Z,30.90
2023-01-27T20:50:21.489Z,27.50
2023-01-27T20:52:48.061Z,27.85
2023-01-27T20:55:15.425Z,25.23
2023-01-27T20:57:42.415Z,27.20
2023-01-27T21:00:18.024Z,29.40
2023-01-27T21:02:44.551Z,27.52
2023-01-27T21:05:12.193Z,22.30
2023-01-27T21:07:39.071Z,21.90
2023-01-27T21:10:06.428Z,26.33
2023-01-27T21:12:32.971Z,24.63
2023-01-27T21:14:59.453Z,22.95
2023-01-27T21:17:26.012Z,32.47
2023-01-27T21:19:52.500Z,30.40
2023-01-27T21:22:18.964Z,21.35
2023-01-27T21:24:45.446Z,23.92
2023-01-27T21:27:12.195Z,26.90
2023-01-27T21:29:38.662Z,30.92
2023-01-27T21:32:05.180Z,23.52
2023-01-27T21:34:31.664Z,27.85
2023-01-27T21:36:58.188Z,22.80
2023-01-27T21:39:25.004Z,24.85
2023-01-27T21:41:51.474Z,25.83
2023-01-27T21:44:20.915Z,25.08
2023-01-27T21:46:47.461Z,22.23
2023-01-27T21:49:14.009Z,30.80
2023-01-27T21:51:40.646Z,28.10
2023-01-27T21:54:07.176Z,27.52
2023-01-27T21:56:33.780Z,28.00
2023-01-27T21:59:00.427Z,28.15
2023-01-27T22:01:27.978Z,29.80
2023-01-27T22:03:55.598Z,30.73
2023-01-27T22:06:22.100Z,21.55
2023-01-27T22:08:51.853Z,25.23
2023-01-27T22:11:19.089Z,27.75
2023-01-27T22:13:45.728Z,22.87
2023-01-27T22:16:16.328Z,20.10
2023-01-27T22:18:43.446Z,25.23
2023-01-27T22:21:10.182Z,22.45
2023-01-27T22:23:36.736Z,21.52
2023-01-27T22:26:06.811Z,31.30
2023-01-27T22:28:33.319Z,26.88
2023-01-27T22:31:02.732Z,28.13
2023-01-27T22:33:29.376Z,21.77
2023-01-27T22:36:00.873Z,21.52
2023-01-27T22:38:27.339Z,24.05
2023-01-27T22:41:00.319Z,27.60
2023-01-27T22:43:26.943Z,26.90
2023-01-27T22:45:53.492Z,32.50
2023-01-27T22:48:20.267Z,29.92
2023-01-27T22:50:47.115Z,29.92
2023-01-27T22:53:13.630Z,26.63
2023-01-27T22:55:40.176Z,34.30
2023-01-27T22:58:07.262Z,31.67
2023-01-27T23:00:33.819Z,31.08
2023-01-27T23:03:01.433Z,29.83
2023-01-27T23:05:28.400Z,28.40
2023-01-27T23:07:55.018Z,36.55
2023-01-27T23:10:21.531Z,29.38
2023-01-27T23:12:48.028Z,30.05
2023-01-27T23:15:15.019Z,29.08
2023-01-27T23:17:41.610Z,32.20
2023-01-27T23:20:08.679Z,30.20
2023-01-27T23:22:35.155Z,38.05
2023-01-27T23:25:01.743Z,25.75
2023-01-27T23:27:28.233Z,40.63
2023-01-27T23:29:54.795Z,36.03
2023-01-27T23:32:21.293Z,25.88
2023-01-27T23:34:47.971Z,38.47
2023-01-27T23:37:14.841Z,32.20
2023-01-27T23:39:41.551Z,35.92
2023-01-27T23:42:08.014Z,26.88
2023-01-27T23:44:34.555Z,24.17
2023-01-27T23:47:01.225Z,31.85
2023-01-27T23:49:27.890Z,31.15
2023-01-27T23:51:54.380Z,25.65
2023-01-27T23:54:20.860Z,28.98
2023-01-27T23:56:47.399Z,30.10
2023-01-27T23:59:14.133Z,38.00
